Terminal Aerodrome Forecast
Issued by NWS Huntsville, AL

Home | Current Version | Previous Version | Text Only | Print | Product List | Glossary On
Versions: 1 2 3 4 5 6 7 8 9 10 11 12
000
FTUS44 KHUN 010520
TAFHSV
TAF
KHSV 010520Z 0106/0206 VRB02KT P6SM FEW040 SCT080
      TEMPO 0110/0113 4SM BR
     FM011400 27004KT P6SM BKN040 OVC080
     FM011800 27007KT P6SM SCT040=

USA.gov is the U.S. government's official web portal to all federal, state and local government web resources and services.